Terminal Aerodrome Forecast
Issued by NWS

Home | Current Version | Previous Version | Text Only | Print | Product List | Glossary On
Versions: 1 2 3 4 5 6 7 8 9 10 11 12 13 14
000
FTPA31 PHFO 300529
TAFHOG
TAF
PHOG 300529Z 3006/3106 05006KT P6SM FEW030 SCT050
     FM301000 14005KT P6SM FEW050
     FM302000 05014G22KT P6SM FEW030 SCT050
     FM310400 05010KT P6SM FEW030 SCT050
      AMD LTD TO VIS AND WIND 3009/3016=

USA.gov is the U.S. government's official web portal to all federal, state and local government web resources and services.